WXM80 ListenWXM80 Stop

You find our weather info also at:

UK Metoffice

WeatherCloud

Weather Underground

Northeastern Weather Network

AWEKAS

Citizen Weather Observer Program (CWOP)

HAMweather, WeatherForYou, PWS Weather


Weather Underground History page Text

Daily Summary for February 15, 2018 Units:  Both    English   Metric
« Previous Day
Next Day »
Daily Weekly Monthly Yearly Custom
  High: Low: Average:
Temperature: 57.3 °F /  14.1 °C 43.7 °F /  6.5 °C 50.1 °F /  10.1 °C
Dew Point: 52.9 °F /  11.6 °C 42.1 °F /  5.6 °C 47.6 °F /  8.7 °C
Humidity: 97 % 80 % 91 %
Wind Speed: 8.0 mph /  12.9 km/h - 1.9 mph /  3.1 km/h
Wind Gust: 18.4 mph /  29.6 km/h - -
Wind:- - SW
Pressure: 29.79 in /  1008.7 hPa 29.40 in /  995.5 hPa -
Precipitation: 0.02 in /  0.51 mm    
Historical Graphs
 
 
Tabular Data for February 15, 2018
Time Temperature Dew Point Pressure Wind Wind Speed Wind Gust Humidity Rainfall Rate (Hourly)
00:01 44.9 °F /  7.2 °C 42.1 °F /  5.6 °C 29.79 in /  1008.7 hPa SSW 2.0 mph /  3.2 km/h 4.0 mph /  6.4 km/h 90 % 0.00 in /  0 mm
00:06 44.9 °F /  7.2 °C 42.4 °F /  5.8 °C 29.79 in /  1008.7 hPa SSW 2.0 mph /  3.2 km/h 5.0 mph /  8 km/h 91 % 0.00 in /  0 mm
00:11 44.8 °F /  7.1 °C 42.3 °F /  5.7 °C 29.78 in /  1008.4 hPa Calm   4.0 mph /  6.4 km/h 91 % 0.00 in /  0 mm
00:16 44.7 °F /  7.1 °C 42.2 °F /  5.7 °C 29.78 in /  1008.4 hPa SSW 1.0 mph /  1.6 km/h 4.0 mph /  6.4 km/h 91 % 0.00 in /  0 mm
00:21 44.7 °F /  7.1 °C 42.2 °F /  5.7 °C 29.79 in /  1008.7 hPa SSW 3.0 mph /  4.8 km/h 6.0 mph /  9.7 km/h 91 % 0.00 in /  0 mm
00:26 44.6 °F /  7 °C 42.4 °F /  5.8 °C 29.79 in /  1008.7 hPa SSW 2.0 mph /  3.2 km/h 5.0 mph /  8 km/h 92 % 0.00 in /  0 mm
00:31 44.5 °F /  6.9 °C 42.3 °F /  5.7 °C 29.79 in /  1008.7 hPa SSW 2.0 mph /  3.2 km/h 5.0 mph /  8 km/h 92 % 0.00 in /  0 mm
00:36 44.5 °F /  6.9 °C 42.3 °F /  5.7 °C 29.79 in /  1008.7 hPa SSW 2.0 mph /  3.2 km/h 6.0 mph /  9.7 km/h 92 % 0.00 in /  0 mm
00:41 44.4 °F /  6.9 °C 42.2 °F /  5.7 °C 29.78 in /  1008.4 hPa SSW 1.0 mph /  1.6 km/h 5.0 mph /  8 km/h 92 % 0.00 in /  0 mm
00:46 44.3 °F /  6.8 °C 42.1 °F /  5.6 °C 29.78 in /  1008.4 hPa SSW 2.0 mph /  3.2 km/h 4.0 mph /  6.4 km/h 92 % 0.00 in /  0 mm
00:51 44.3 °F /  6.8 °C 42.1 °F /  5.6 °C 29.78 in /  1008.4 hPa SW 2.0 mph /  3.2 km/h 6.0 mph /  9.7 km/h 92 % 0.00 in /  0 mm
00:56 44.3 °F /  6.8 °C 42.4 °F /  5.8 °C 29.78 in /  1008.4 hPa Calm   3.0 mph /  4.8 km/h 93 % 0.00 in /  0 mm
01:01 44.2 °F /  6.8 °C 42.3 °F /  5.7 °C 29.78 in /  1008.4 hPa Calm   2.3 mph /  3.7 km/h 93 % 0.00 in /  0 mm
01:06 44.2 °F /  6.8 °C 42.3 °F /  5.7 °C 29.78 in /  1008.4 hPa WSW 1.4 mph /  2.3 km/h 4.6 mph /  7.4 km/h 93 % 0.00 in /  0 mm
01:11 44.2 °F /  6.8 °C 42.3 °F /  5.7 °C 29.78 in /  1008.4 hPa SW 1.7 mph /  2.7 km/h 3.5 mph /  5.6 km/h 93 % 0.00 in /  0 mm
01:16 44.2 °F /  6.8 °C 42.3 °F /  5.7 °C 29.78 in /  1008.4 hPa SW 0.2 mph /  0.3 km/h 2.3 mph /  3.7 km/h 93 % 0.00 in /  0 mm
01:21 44.2 °F /  6.8 °C 42.3 °F /  5.7 °C 29.77 in /  1008 hPa Calm     93 % 0.00 in /  0 mm
01:26 44.3 °F /  6.8 °C 42.4 °F /  5.8 °C 29.76 in /  1007.7 hPa SW 1.4 mph /  2.3 km/h 3.5 mph /  5.6 km/h 93 % 0.00 in /  0 mm
01:31 44.3 °F /  6.8 °C 42.4 °F /  5.8 °C 29.76 in /  1007.7 hPa SW 2.1 mph /  3.4 km/h 3.5 mph /  5.6 km/h 93 % 0.00 in /  0 mm
01:36 44.3 °F /  6.8 °C 42.4 °F /  5.8 °C 29.76 in /  1007.7 hPa SSW 1.7 mph /  2.7 km/h 4.6 mph /  7.4 km/h 93 % 0.00 in /  0 mm
01:41 44.3 °F /  6.8 °C 42.7 °F /  5.9 °C 29.76 in /  1007.7 hPa SSW 1.9 mph /  3.1 km/h 3.5 mph /  5.6 km/h 94 % 0.00 in /  0 mm
01:46 44.3 °F /  6.8 °C 42.7 °F /  5.9 °C 29.75 in /  1007.3 hPa SSW 1.6 mph /  2.6 km/h 3.5 mph /  5.6 km/h 94 % 0.00 in /  0 mm
01:51 44.3 °F /  6.8 °C 42.7 °F /  5.9 °C 29.75 in /  1007.3 hPa SSW 1.6 mph /  2.6 km/h 2.3 mph /  3.7 km/h 94 % 0.00 in /  0 mm
01:56 44.3 °F /  6.8 °C 42.7 °F /  5.9 °C 29.75 in /  1007.3 hPa SSW 0.7 mph /  1.1 km/h 2.0 mph /  3.2 km/h 94 % 0.00 in /  0 mm
02:01 44.4 °F /  6.9 °C 42.8 °F /  6 °C 29.75 in /  1007.3 hPa SSW 2.0 mph /  3.2 km/h 5.0 mph /  8 km/h 94 % 0.00 in /  0 mm
02:06 44.4 °F /  6.9 °C 42.8 °F /  6 °C 29.75 in /  1007.3 hPa SSW 3.9 mph /  6.3 km/h 7.0 mph /  11.3 km/h 94 % 0.00 in /  0 mm
02:11 44.5 °F /  6.9 °C 42.9 °F /  6.1 °C 29.75 in /  1007.3 hPa SSW 2.7 mph /  4.3 km/h 4.6 mph /  7.4 km/h 94 % 0.00 in /  0 mm
02:17 44.5 °F /  6.9 °C 42.9 °F /  6.1 °C 29.74 in /  1007 hPa SSW 3.6 mph /  5.8 km/h 6.9 mph /  11.1 km/h 94 % 0.00 in /  0 mm
02:22 44.5 °F /  6.9 °C 42.9 °F /  6.1 °C 29.74 in /  1007 hPa SSW 4.9 mph /  7.9 km/h 5.8 mph /  9.3 km/h 94 % 0.00 in /  0 mm
02:27 44.5 °F /  6.9 °C 42.9 °F /  6.1 °C 29.74 in /  1007 hPa SSW 2.7 mph /  4.3 km/h 4.6 mph /  7.4 km/h 94 % 0.00 in /  0 mm
02:32 44.5 °F /  6.9 °C 43.2 °F /  6.2 °C 29.74 in /  1007 hPa SW 1.8 mph /  2.9 km/h 3.5 mph /  5.6 km/h 95 % 0.00 in /  0 mm
02:37 44.4 °F /  6.9 °C 43.1 °F /  6.2 °C 29.74 in /  1007 hPa SSW 2.4 mph /  3.9 km/h 4.6 mph /  7.4 km/h 95 % 0.00 in /  0 mm
02:42 44.4 °F /  6.9 °C 43.1 °F /  6.2 °C 29.73 in /  1006.7 hPa SSW 1.2 mph /  1.9 km/h 3.5 mph /  5.6 km/h 95 % 0.00 in /  0 mm
02:47 44.3 °F /  6.8 °C 43.0 °F /  6.1 °C 29.74 in /  1007 hPa SW 1.4 mph /  2.3 km/h 3.5 mph /  5.6 km/h 95 % 0.00 in /  0 mm
02:52 44.3 °F /  6.8 °C 43.0 °F /  6.1 °C 29.73 in /  1006.7 hPa SW 1.0 mph /  1.6 km/h 2.3 mph /  3.7 km/h 95 % 0.00 in /  0 mm
02:57 44.3 °F /  6.8 °C 43.0 °F /  6.1 °C 29.73 in /  1006.7 hPa SW 0.3 mph /  0.5 km/h 2.0 mph /  3.2 km/h 95 % 0.00 in /  0 mm
03:02 44.2 °F /  6.8 °C 42.6 °F /  5.9 °C 29.72 in /  1006.3 hPa Calm     94 % 0.00 in /  0 mm
03:07 44.2 °F /  6.8 °C 42.6 °F /  5.9 °C 29.72 in /  1006.3 hPa SW 0.5 mph /  0.8 km/h 1.2 mph /  1.9 km/h 94 % 0.00 in /  0 mm
03:12 44.2 °F /  6.8 °C 42.6 °F /  5.9 °C 29.72 in /  1006.3 hPa SW 0.8 mph /  1.3 km/h 3.0 mph /  4.8 km/h 94 % 0.00 in /  0 mm
03:17 44.2 °F /  6.8 °C 42.6 °F /  5.9 °C 29.72 in /  1006.3 hPa Calm     94 % 0.00 in /  0 mm
03:22 44.2 °F /  6.8 °C 42.6 °F /  5.9 °C 29.72 in /  1006.3 hPa SW 0.5 mph /  0.8 km/h 2.3 mph /  3.7 km/h 94 % 0.00 in /  0 mm
03:27 44.1 °F /  6.7 °C 42.5 °F /  5.8 °C 29.71 in /  1006 hPa Calm   1.2 mph /  1.9 km/h 94 % 0.00 in /  0 mm
03:32 44.1 °F /  6.7 °C 42.5 °F /  5.8 °C 29.71 in /  1006 hPa Calm     94 % 0.00 in /  0 mm
03:37 44.1 °F /  6.7 °C 42.5 °F /  5.8 °C 29.71 in /  1006 hPa Calm     94 % 0.01 in /  0.25 mm
03:42 44.1 °F /  6.7 °C 42.5 °F /  5.8 °C 29.71 in /  1006 hPa Calm     94 % 0.01 in /  0.25 mm
03:47 44.0 °F /  6.7 °C 42.4 °F /  5.8 °C 29.71 in /  1006 hPa Calm     94 % 0.02 in /  0.51 mm
03:52 44.1 °F /  6.7 °C 42.8 °F /  6 °C 29.71 in /  1006 hPa SW 0.1 mph /  0.2 km/h   95 % 0.02 in /  0.51 mm
03:58 44.1 °F /  6.7 °C 42.8 °F /  6 °C 29.71 in /  1006 hPa Calm   1.2 mph /  1.9 km/h 95 % 0.02 in /  0.51 mm
04:03 44.1 °F /  6.7 °C 42.8 °F /  6 °C 29.71 in /  1006 hPa SW 0.5 mph /  0.8 km/h 3.5 mph /  5.6 km/h 95 % 0.02 in /  0.51 mm
04:08 44.1 °F /  6.7 °C 42.8 °F /  6 °C 29.71 in /  1006 hPa SW 0.3 mph /  0.5 km/h 2.3 mph /  3.7 km/h 95 % 0.02 in /  0.51 mm
04:13 44.1 °F /  6.7 °C 42.8 °F /  6 °C 29.71 in /  1006 hPa SW 0.6 mph /  1 km/h 2.3 mph /  3.7 km/h 95 % 0.02 in /  0.51 mm
04:18 44.1 °F /  6.7 °C 42.8 °F /  6 °C 29.71 in /  1006 hPa SW 0.1 mph /  0.2 km/h 1.2 mph /  1.9 km/h 95 % 0.02 in /  0.51 mm
04:23 44.1 °F /  6.7 °C 42.8 °F /  6 °C 29.71 in /  1006 hPa SW 0.8 mph /  1.3 km/h 2.0 mph /  3.2 km/h 95 % 0.02 in /  0.51 mm
04:28 44.1 °F /  6.7 °C 42.8 °F /  6 °C 29.71 in /  1006 hPa SW 0.2 mph /  0.3 km/h 2.0 mph /  3.2 km/h 95 % 0.02 in /  0.51 mm
04:33 44.1 °F /  6.7 °C 42.8 °F /  6 °C 29.71 in /  1006 hPa SW 2.6 mph /  4.2 km/h 3.5 mph /  5.6 km/h 95 % 0.01 in /  0.25 mm
04:38 44.1 °F /  6.7 °C 42.8 °F /  6 °C 29.71 in /  1006 hPa SW 1.5 mph /  2.4 km/h 3.5 mph /  5.6 km/h 95 % 0.01 in /  0.25 mm
04:43 44.0 °F /  6.7 °C 42.7 °F /  5.9 °C 29.71 in /  1006 hPa Calm   2.3 mph /  3.7 km/h 95 % 0.01 in /  0.25 mm
04:48 44.0 °F /  6.7 °C 42.7 °F /  5.9 °C 29.71 in /  1006 hPa SSW 1.9 mph /  3.1 km/h 1.9 mph /  3.1 km/h 95 % 0.00 in /  0 mm
04:54 44.0 °F /  6.7 °C 42.7 °F /  5.9 °C 29.71 in /  1006 hPa SSW 0.9 mph /  1.4 km/h 3.5 mph /  5.6 km/h 95 % 0.00 in /  0 mm
04:59 44.0 °F /  6.7 °C 42.7 °F /  5.9 °C 29.70 in /  1005.6 hPa SSE 1.5 mph /  2.4 km/h 4.0 mph /  6.4 km/h 95 % 0.00 in /  0 mm
05:04 43.9 °F /  6.6 °C 42.6 °F /  5.9 °C 29.70 in /  1005.6 hPa Calm   1.2 mph /  1.9 km/h 95 % 0.00 in /  0 mm
05:09 43.9 °F /  6.6 °C 42.6 °F /  5.9 °C 29.70 in /  1005.6 hPa Calm   1.2 mph /  1.9 km/h 95 % 0.00 in /  0 mm
05:14 43.9 °F /  6.6 °C 42.6 °F /  5.9 °C 29.69 in /  1005.3 hPa SSW 1.3 mph /  2.1 km/h 3.5 mph /  5.6 km/h 95 % 0.00 in /  0 mm
05:19 43.8 °F /  6.6 °C 42.5 °F /  5.8 °C 29.69 in /  1005.3 hPa SSW 1.4 mph /  2.3 km/h 3.5 mph /  5.6 km/h 95 % 0.00 in /  0 mm
05:24 43.8 °F /  6.6 °C 42.5 °F /  5.8 °C 29.69 in /  1005.3 hPa SSW 1.7 mph /  2.7 km/h 4.6 mph /  7.4 km/h 95 % 0.00 in /  0 mm
05:29 43.8 °F /  6.6 °C 42.5 °F /  5.8 °C 29.69 in /  1005.3 hPa South 0.2 mph /  0.3 km/h 1.2 mph /  1.9 km/h 95 % 0.00 in /  0 mm
05:34 43.8 °F /  6.6 °C 42.5 °F /  5.8 °C 29.69 in /  1005.3 hPa South 2.5 mph /  4 km/h 5.8 mph /  9.3 km/h 95 % 0.00 in /  0 mm
05:39 43.8 °F /  6.6 °C 42.5 °F /  5.8 °C 29.69 in /  1005.3 hPa South 0.4 mph /  0.6 km/h 3.5 mph /  5.6 km/h 95 % 0.00 in /  0 mm
05:44 43.7 °F /  6.5 °C 42.4 °F /  5.8 °C 29.68 in /  1005 hPa South 1.1 mph /  1.8 km/h 4.0 mph /  6.4 km/h 95 % 0.00 in /  0 mm
05:49 43.7 °F /  6.5 °C 42.4 °F /  5.8 °C 29.68 in /  1005 hPa South 2.0 mph /  3.2 km/h 3.0 mph /  4.8 km/h 95 % 0.00 in /  0 mm
05:54 43.7 °F /  6.5 °C 42.6 °F /  5.9 °C 29.68 in /  1005 hPa SSW 1.7 mph /  2.7 km/h 2.3 mph /  3.7 km/h 96 % 0.00 in /  0 mm
05:59 43.7 °F /  6.5 °C 42.6 °F /  5.9 °C 29.68 in /  1005 hPa Calm     96 % 0.00 in /  0 mm
06:04 43.8 °F /  6.6 °C 42.7 °F /  5.9 °C 29.67 in /  1004.6 hPa SW 0.5 mph /  0.8 km/h 3.5 mph /  5.6 km/h 96 % 0.00 in /  0 mm
06:09 43.8 °F /  6.6 °C 42.7 °F /  5.9 °C 29.68 in /  1005 hPa SW 2.1 mph /  3.4 km/h 2.3 mph /  3.7 km/h 96 % 0.00 in /  0 mm
06:14 43.8 °F /  6.6 °C 42.7 °F /  5.9 °C 29.67 in /  1004.6 hPa SSW 1.7 mph /  2.7 km/h 4.0 mph /  6.4 km/h 96 % 0.00 in /  0 mm
06:19 43.8 °F /  6.6 °C 42.7 °F /  5.9 °C 29.68 in /  1005 hPa SSW 3.2 mph /  5.1 km/h 3.5 mph /  5.6 km/h 96 % 0.00 in /  0 mm
06:24 43.7 °F /  6.5 °C 42.6 °F /  5.9 °C 29.67 in /  1004.6 hPa South 2.7 mph /  4.3 km/h 4.6 mph /  7.4 km/h 96 % 0.00 in /  0 mm
06:30 43.7 °F /  6.5 °C 42.6 °F /  5.9 °C 29.67 in /  1004.6 hPa WSW 3.1 mph /  5 km/h 4.6 mph /  7.4 km/h 96 % 0.00 in /  0 mm
06:35 43.7 °F /  6.5 °C 42.6 °F /  5.9 °C 29.67 in /  1004.6 hPa SW 1.1 mph /  1.8 km/h 3.5 mph /  5.6 km/h 96 % 0.00 in /  0 mm
06:40 43.7 °F /  6.5 °C 42.6 °F /  5.9 °C 29.67 in /  1004.6 hPa WSW 1.3 mph /  2.1 km/h 3.5 mph /  5.6 km/h 96 % 0.00 in /  0 mm
06:45 43.7 °F /  6.5 °C 42.6 °F /  5.9 °C 29.67 in /  1004.6 hPa SW 2.8 mph /  4.5 km/h 4.6 mph /  7.4 km/h 96 % 0.00 in /  0 mm
06:50 43.7 °F /  6.5 °C 42.6 °F /  5.9 °C 29.67 in /  1004.6 hPa SW 2.3 mph /  3.7 km/h 3.5 mph /  5.6 km/h 96 % 0.00 in /  0 mm
06:55 43.7 °F /  6.5 °C 42.6 °F /  5.9 °C 29.67 in /  1004.6 hPa SSW 1.0 mph /  1.6 km/h 2.3 mph /  3.7 km/h 96 % 0.00 in /  0 mm
07:00 43.8 °F /  6.6 °C 42.7 °F /  5.9 °C 29.67 in /  1004.6 hPa SW 3.3 mph /  5.3 km/h 5.0 mph /  8 km/h 96 % 0.00 in /  0 mm
07:05 43.8 °F /  6.6 °C 42.7 °F /  5.9 °C 29.67 in /  1004.6 hPa SW 4.4 mph /  7.1 km/h 4.6 mph /  7.4 km/h 96 % 0.00 in /  0 mm
07:10 43.8 °F /  6.6 °C 42.7 °F /  5.9 °C 29.66 in /  1004.3 hPa SW 2.4 mph /  3.9 km/h 3.5 mph /  5.6 km/h 96 % 0.00 in /  0 mm
07:15 43.8 °F /  6.6 °C 42.7 °F /  5.9 °C 29.67 in /  1004.6 hPa SW 1.8 mph /  2.9 km/h 3.5 mph /  5.6 km/h 96 % 0.00 in /  0 mm
07:20 43.9 °F /  6.6 °C 42.8 °F /  6 °C 29.67 in /  1004.6 hPa SW 0.6 mph /  1 km/h 2.0 mph /  3.2 km/h 96 % 0.00 in /  0 mm
07:25 44.0 °F /  6.7 °C 42.9 °F /  6.1 °C 29.67 in /  1004.6 hPa SW 0.1 mph /  0.2 km/h   96 % 0.00 in /  0 mm
07:30 44.1 °F /  6.7 °C 43.0 °F /  6.1 °C 29.67 in /  1004.6 hPa SSW 3.3 mph /  5.3 km/h 6.0 mph /  9.7 km/h 96 % 0.00 in /  0 mm
07:35 44.2 °F /  6.8 °C 43.1 °F /  6.2 °C 29.67 in /  1004.6 hPa SSW 1.9 mph /  3.1 km/h 3.5 mph /  5.6 km/h 96 % 0.00 in /  0 mm
07:40 44.3 °F /  6.8 °C 43.2 °F /  6.2 °C 29.67 in /  1004.6 hPa SSW 0.3 mph /  0.5 km/h 4.0 mph /  6.4 km/h 96 % 0.00 in /  0 mm
07:45 44.3 °F /  6.8 °C 43.2 °F /  6.2 °C 29.67 in /  1004.6 hPa SSW 0.6 mph /  1 km/h 2.3 mph /  3.7 km/h 96 % 0.00 in /  0 mm
07:50 44.4 °F /  6.9 °C 43.3 °F /  6.3 °C 29.67 in /  1004.6 hPa Calm     96 % 0.00 in /  0 mm
07:56 44.5 °F /  6.9 °C 43.4 °F /  6.3 °C 29.67 in /  1004.6 hPa SSW 1.0 mph /  1.6 km/h 3.0 mph /  4.8 km/h 96 % 0.00 in /  0 mm
08:01 44.6 °F /  7 °C 43.5 °F /  6.4 °C 29.67 in /  1004.6 hPa South 1.5 mph /  2.4 km/h 3.5 mph /  5.6 km/h 96 % 0.00 in /  0 mm
08:06 44.7 °F /  7.1 °C 43.9 °F /  6.6 °C 29.67 in /  1004.6 hPa South 1.2 mph /  1.9 km/h 4.6 mph /  7.4 km/h 97 % 0.00 in /  0 mm
08:11 44.8 °F /  7.1 °C 44.0 °F /  6.7 °C 29.67 in /  1004.6 hPa SSW 2.2 mph /  3.5 km/h 6.9 mph /  11.1 km/h 97 % 0.00 in /  0 mm
08:16 44.9 °F /  7.2 °C 43.8 °F /  6.6 °C 29.67 in /  1004.6 hPa SW 1.3 mph /  2.1 km/h 4.6 mph /  7.4 km/h 96 % 0.00 in /  0 mm
08:21 45.1 °F /  7.3 °C 44.3 °F /  6.8 °C 29.67 in /  1004.6 hPa WSW 0.9 mph /  1.4 km/h 4.6 mph /  7.4 km/h 97 % 0.00 in /  0 mm
08:26 45.3 °F /  7.4 °C 44.5 °F /  6.9 °C 29.67 in /  1004.6 hPa SW 0.8 mph /  1.3 km/h 3.5 mph /  5.6 km/h 97 % 0.00 in /  0 mm
08:31 45.4 °F /  7.4 °C 44.6 °F /  7 °C 29.67 in /  1004.6 hPa SW 0.9 mph /  1.4 km/h 3.5 mph /  5.6 km/h 97 % 0.00 in /  0 mm
08:36 45.6 °F /  7.6 °C 44.8 °F /  7.1 °C 29.66 in /  1004.3 hPa South 0.6 mph /  1 km/h 3.5 mph /  5.6 km/h 97 % 0.00 in /  0 mm
08:41 45.8 °F /  7.7 °C 45.0 °F /  7.2 °C 29.67 in /  1004.6 hPa South 0.4 mph /  0.6 km/h 1.2 mph /  1.9 km/h 97 % 0.00 in /  0 mm
08:46 46.0 °F /  7.8 °C 45.2 °F /  7.3 °C 29.66 in /  1004.3 hPa Calm     97 % 0.00 in /  0 mm
08:51 46.2 °F /  7.9 °C 45.4 °F /  7.4 °C 29.67 in /  1004.6 hPa South 0.1 mph /  0.2 km/h 1.0 mph /  1.6 km/h 97 % 0.00 in /  0 mm
08:56 46.3 °F /  7.9 °C 45.5 °F /  7.5 °C 29.66 in /  1004.3 hPa South 1.6 mph /  2.6 km/h 3.5 mph /  5.6 km/h 97 % 0.00 in /  0 mm
09:01 46.5 °F /  8.1 °C 45.7 °F /  7.6 °C 29.66 in /  1004.3 hPa West 1.3 mph /  2.1 km/h 3.5 mph /  5.6 km/h 97 % 0.00 in /  0 mm
09:06 46.7 °F /  8.2 °C 45.9 °F /  7.7 °C 29.66 in /  1004.3 hPa South 2.8 mph /  4.5 km/h 3.5 mph /  5.6 km/h 97 % 0.00 in /  0 mm
09:11 46.9 °F /  8.3 °C 46.1 °F /  7.8 °C 29.65 in /  1003.9 hPa SSW 2.2 mph /  3.5 km/h 3.5 mph /  5.6 km/h 97 % 0.00 in /  0 mm
09:16 47.1 °F /  8.4 °C 46.3 °F /  7.9 °C 29.65 in /  1003.9 hPa Calm     97 % 0.00 in /  0 mm
09:22 47.3 °F /  8.5 °C 46.5 °F /  8.1 °C 29.65 in /  1003.9 hPa SW 1.1 mph /  1.8 km/h 2.0 mph /  3.2 km/h 97 % 0.00 in /  0 mm
09:27 47.5 °F /  8.6 °C 46.7 °F /  8.2 °C 29.66 in /  1004.3 hPa Calm   3.5 mph /  5.6 km/h 97 % 0.00 in /  0 mm
09:32 47.7 °F /  8.7 °C 46.9 °F /  8.3 °C 29.65 in /  1003.9 hPa SSW 3.6 mph /  5.8 km/h 7.0 mph /  11.3 km/h 97 % 0.00 in /  0 mm
09:37 47.8 °F /  8.8 °C 47.0 °F /  8.3 °C 29.65 in /  1003.9 hPa South 0.9 mph /  1.4 km/h 3.5 mph /  5.6 km/h 97 % 0.00 in /  0 mm
09:42 48.1 °F /  8.9 °C 47.3 °F /  8.5 °C 29.65 in /  1003.9 hPa SSW 3.7 mph /  6 km/h 4.6 mph /  7.4 km/h 97 % 0.00 in /  0 mm
09:47 48.3 °F /  9.1 °C 47.5 °F /  8.6 °C 29.65 in /  1003.9 hPa SSW 0.6 mph /  1 km/h 3.5 mph /  5.6 km/h 97 % 0.00 in /  0 mm
09:52 48.5 °F /  9.2 °C 47.7 °F /  8.7 °C 29.65 in /  1003.9 hPa SW 1.1 mph /  1.8 km/h 3.5 mph /  5.6 km/h 97 % 0.00 in /  0 mm
09:57 48.7 °F /  9.3 °C 47.9 °F /  8.8 °C 29.65 in /  1003.9 hPa SSW 3.4 mph /  5.5 km/h 9.2 mph /  14.8 km/h 97 % 0.00 in /  0 mm
10:02 48.8 °F /  9.3 °C 48.0 °F /  8.9 °C 29.64 in /  1003.6 hPa SSW 3.7 mph /  6 km/h 8.0 mph /  12.9 km/h 97 % 0.00 in /  0 mm
10:07 49.1 °F /  9.5 °C 48.3 °F /  9.1 °C 29.64 in /  1003.6 hPa SW 4.3 mph /  6.9 km/h 8.1 mph /  13 km/h 97 % 0.00 in /  0 mm
10:12 49.6 °F /  9.8 °C 48.8 °F /  9.3 °C 29.64 in /  1003.6 hPa SW 3.9 mph /  6.3 km/h 5.0 mph /  8 km/h 97 % 0.00 in /  0 mm
10:17 49.7 °F /  9.8 °C 48.6 °F /  9.2 °C 29.64 in /  1003.6 hPa South 2.6 mph /  4.2 km/h 3.5 mph /  5.6 km/h 96 % 0.00 in /  0 mm
10:22 49.9 °F /  9.9 °C 48.8 °F /  9.3 °C 29.63 in /  1003.3 hPa SSW 5.0 mph /  8 km/h 7.0 mph /  11.3 km/h 96 % 0.00 in /  0 mm
10:27 49.9 °F /  9.9 °C 48.5 °F /  9.2 °C 29.63 in /  1003.3 hPa WSW 3.1 mph /  5 km/h 6.9 mph /  11.1 km/h 95 % 0.00 in /  0 mm
10:32 50.0 °F /  10 °C 48.6 °F /  9.2 °C 29.63 in /  1003.3 hPa West 6.4 mph /  10.3 km/h 9.2 mph /  14.8 km/h 95 % 0.00 in /  0 mm
10:37 50.1 °F /  10.1 °C 48.7 °F /  9.3 °C 29.64 in /  1003.6 hPa SW 4.2 mph /  6.8 km/h 4.6 mph /  7.4 km/h 95 % 0.00 in /  0 mm
10:42 50.1 °F /  10.1 °C 48.4 °F /  9.1 °C 29.63 in /  1003.3 hPa SW 1.2 mph /  1.9 km/h 6.9 mph /  11.1 km/h 94 % 0.00 in /  0 mm
10:47 50.1 °F /  10.1 °C 48.4 °F /  9.1 °C 29.63 in /  1003.3 hPa WSW 1.3 mph /  2.1 km/h 6.9 mph /  11.1 km/h 94 % 0.00 in /  0 mm
10:53 50.1 °F /  10.1 °C 48.2 °F /  9 °C 29.63 in /  1003.3 hPa SW 1.2 mph /  1.9 km/h 3.5 mph /  5.6 km/h 93 % 0.00 in /  0 mm
10:58 50.1 °F /  10.1 °C 48.2 °F /  9 °C 29.63 in /  1003.3 hPa SSW 3.6 mph /  5.8 km/h 5.0 mph /  8 km/h 93 % 0.00 in /  0 mm
11:03 50.1 °F /  10.1 °C 48.2 °F /  9 °C 29.63 in /  1003.3 hPa SW 2.9 mph /  4.7 km/h 4.6 mph /  7.4 km/h 93 % 0.00 in /  0 mm
11:08 50.2 °F /  10.1 °C 48.3 °F /  9.1 °C 29.62 in /  1002.9 hPa West 0.7 mph /  1.1 km/h 3.5 mph /  5.6 km/h 93 % 0.00 in /  0 mm
11:13 50.4 °F /  10.2 °C 48.5 °F /  9.2 °C 29.62 in /  1002.9 hPa SSW 2.9 mph /  4.7 km/h 7.0 mph /  11.3 km/h 93 % 0.00 in /  0 mm
11:18 50.6 °F /  10.3 °C 48.7 °F /  9.3 °C 29.62 in /  1002.9 hPa WSW 2.2 mph /  3.5 km/h 4.6 mph /  7.4 km/h 93 % 0.00 in /  0 mm
11:23 51.2 °F /  10.7 °C 49.5 °F /  9.7 °C 29.62 in /  1002.9 hPa SSW 2.4 mph /  3.9 km/h 4.6 mph /  7.4 km/h 94 % 0.00 in /  0 mm
11:28 51.9 °F /  11.1 °C 50.2 °F /  10.1 °C 29.61 in /  1002.6 hPa SW 4.6 mph /  7.4 km/h 6.0 mph /  9.7 km/h 94 % 0.00 in /  0 mm
11:33 52.7 °F /  11.5 °C 50.7 °F /  10.4 °C 29.61 in /  1002.6 hPa SSW 2.7 mph /  4.3 km/h 7.0 mph /  11.3 km/h 93 % 0.00 in /  0 mm
11:38 53.3 °F /  11.8 °C 50.7 °F /  10.4 °C 29.61 in /  1002.6 hPa SW 3.8 mph /  6.1 km/h 9.2 mph /  14.8 km/h 91 % 0.00 in /  0 mm
11:43 53.7 °F /  12.1 °C 50.8 °F /  10.4 °C 29.60 in /  1002.3 hPa SSW 5.9 mph /  9.5 km/h 8.1 mph /  13 km/h 90 % 0.00 in /  0 mm
11:48 54.0 °F /  12.2 °C 50.8 °F /  10.4 °C 29.60 in /  1002.3 hPa SW 2.6 mph /  4.2 km/h 4.6 mph /  7.4 km/h 89 % 0.00 in /  0 mm
11:53 54.3 °F /  12.4 °C 51.1 °F /  10.6 °C 29.60 in /  1002.3 hPa SSW 5.0 mph /  8 km/h 5.8 mph /  9.3 km/h 89 % 0.00 in /  0 mm
11:58 54.6 °F /  12.6 °C 51.1 °F /  10.6 °C 29.59 in /  1001.9 hPa SW 2.8 mph /  4.5 km/h 9.2 mph /  14.8 km/h 88 % 0.00 in /  0 mm
12:03 54.9 °F /  12.7 °C 51.4 °F /  10.8 °C 29.60 in /  1002.3 hPa WSW 5.9 mph /  9.5 km/h 10.4 mph /  16.7 km/h 88 % 0.00 in /  0 mm
12:08 55.2 °F /  12.9 °C 51.7 °F /  10.9 °C 29.59 in /  1001.9 hPa SW 4.0 mph /  6.4 km/h 6.0 mph /  9.7 km/h 88 % 0.00 in /  0 mm
12:14 55.8 °F /  13.2 °C 52.3 °F /  11.3 °C 29.58 in /  1001.6 hPa SW 3.6 mph /  5.8 km/h 3.6 mph /  5.8 km/h 88 % 0.00 in /  0 mm
12:19 56.3 °F /  13.5 °C 52.8 °F /  11.6 °C 29.59 in /  1001.9 hPa WSW 1.5 mph /  2.4 km/h 3.5 mph /  5.6 km/h 88 % 0.00 in /  0 mm
12:24 56.7 °F /  13.7 °C 52.9 °F /  11.6 °C 29.58 in /  1001.6 hPa South 8.0 mph /  12.9 km/h 10.4 mph /  16.7 km/h 87 % 0.00 in /  0 mm
12:29 56.9 °F /  13.8 °C 52.4 °F /  11.3 °C 29.58 in /  1001.6 hPa SSW 6.2 mph /  10 km/h 9.2 mph /  14.8 km/h 85 % 0.00 in /  0 mm
12:34 56.8 °F /  13.8 °C 52.0 °F /  11.1 °C 29.58 in /  1001.6 hPa West 3.6 mph /  5.8 km/h 8.0 mph /  12.9 km/h 84 % 0.00 in /  0 mm
12:39 56.9 °F /  13.8 °C 52.1 °F /  11.2 °C 29.58 in /  1001.6 hPa West 0.2 mph /  0.3 km/h 3.5 mph /  5.6 km/h 84 % 0.00 in /  0 mm
12:44 56.9 °F /  13.8 °C 52.1 °F /  11.2 °C 29.58 in /  1001.6 hPa West 3.4 mph /  5.5 km/h 5.0 mph /  8 km/h 84 % 0.00 in /  0 mm
12:49 56.9 °F /  13.8 °C 51.8 °F /  11 °C 29.58 in /  1001.6 hPa SSW 4.8 mph /  7.7 km/h 8.1 mph /  13 km/h 83 % 0.00 in /  0 mm
12:54 56.9 °F /  13.8 °C 52.1 °F /  11.2 °C 29.57 in /  1001.2 hPa WSW 3.8 mph /  6.1 km/h 6.9 mph /  11.1 km/h 84 % 0.00 in /  0 mm
12:59 56.9 °F /  13.8 °C 52.1 °F /  11.2 °C 29.57 in /  1001.2 hPa WSW 1.2 mph /  1.9 km/h 3.0 mph /  4.8 km/h 84 % 0.00 in /  0 mm
13:04 57.0 °F /  13.9 °C 52.2 °F /  11.2 °C 29.57 in /  1001.2 hPa WSW 2.5 mph /  4 km/h 4.6 mph /  7.4 km/h 84 % 0.00 in /  0 mm
13:09 57.1 °F /  13.9 °C 52.3 °F /  11.3 °C 29.56 in /  1000.9 hPa SSW 0.6 mph /  1 km/h 2.3 mph /  3.7 km/h 84 % 0.00 in /  0 mm
13:14 57.1 °F /  13.9 °C 52.0 °F /  11.1 °C 29.56 in /  1000.9 hPa SSW 4.4 mph /  7.1 km/h 6.9 mph /  11.1 km/h 83 % 0.00 in /  0 mm
13:19 57.2 °F /  14 °C 52.1 °F /  11.2 °C 29.56 in /  1000.9 hPa SW 3.4 mph /  5.5 km/h 4.6 mph /  7.4 km/h 83 % 0.00 in /  0 mm
13:24 57.2 °F /  14 °C 52.1 °F /  11.2 °C 29.55 in /  1000.6 hPa SW 3.6 mph /  5.8 km/h 4.6 mph /  7.4 km/h 83 % 0.00 in /  0 mm
13:29 57.2 °F /  14 °C 52.1 °F /  11.2 °C 29.55 in /  1000.6 hPa SSW 3.7 mph /  6 km/h 8.1 mph /  13 km/h 83 % 0.00 in /  0 mm
13:34 57.2 °F /  14 °C 52.1 °F /  11.2 °C 29.55 in /  1000.6 hPa SSW 2.7 mph /  4.3 km/h 6.0 mph /  9.7 km/h 83 % 0.00 in /  0 mm
13:40 57.2 °F /  14 °C 52.1 °F /  11.2 °C 29.55 in /  1000.6 hPa SSW 5.9 mph /  9.5 km/h 9.2 mph /  14.8 km/h 83 % 0.00 in /  0 mm
13:45 57.2 °F /  14 °C 52.1 °F /  11.2 °C 29.55 in /  1000.6 hPa South 4.7 mph /  7.6 km/h 6.9 mph /  11.1 km/h 83 % 0.00 in /  0 mm
13:50 57.3 °F /  14.1 °C 52.5 °F /  11.4 °C 29.54 in /  1000.2 hPa SW 3.6 mph /  5.8 km/h 9.2 mph /  14.8 km/h 84 % 0.00 in /  0 mm
13:55 57.2 °F /  14 °C 52.1 °F /  11.2 °C 29.54 in /  1000.2 hPa SW 5.7 mph /  9.2 km/h 8.1 mph /  13 km/h 83 % 0.00 in /  0 mm
14:00 57.2 °F /  14 °C 52.1 °F /  11.2 °C 29.54 in /  1000.2 hPa SW 4.6 mph /  7.4 km/h 8.1 mph /  13 km/h 83 % 0.00 in /  0 mm
14:05 57.3 °F /  14.1 °C 52.2 °F /  11.2 °C 29.53 in /  999.9 hPa SSW 4.0 mph /  6.4 km/h 11.0 mph /  17.7 km/h 83 % 0.00 in /  0 mm
14:10 57.2 °F /  14 °C 52.1 °F /  11.2 °C 29.53 in /  999.9 hPa WSW 6.1 mph /  9.8 km/h 9.2 mph /  14.8 km/h 83 % 0.00 in /  0 mm
14:15 57.2 °F /  14 °C 52.1 °F /  11.2 °C 29.53 in /  999.9 hPa SSW 5.6 mph /  9 km/h 8.1 mph /  13 km/h 83 % 0.00 in /  0 mm
14:20 57.0 °F /  13.9 °C 51.6 °F /  10.9 °C 29.52 in /  999.5 hPa SSW 5.8 mph /  9.3 km/h 9.2 mph /  14.8 km/h 82 % 0.00 in /  0 mm
14:25 56.9 °F /  13.8 °C 51.8 °F /  11 °C 29.52 in /  999.5 hPa SW 5.8 mph /  9.3 km/h 9.2 mph /  14.8 km/h 83 % 0.00 in /  0 mm
14:30 56.8 °F /  13.8 °C 51.7 °F /  10.9 °C 29.52 in /  999.5 hPa SSW 3.7 mph /  6 km/h 5.8 mph /  9.3 km/h 83 % 0.00 in /  0 mm
14:35 56.6 °F /  13.7 °C 51.5 °F /  10.8 °C 29.52 in /  999.5 hPa SW 7.9 mph /  12.7 km/h 18.4 mph /  29.6 km/h 83 % 0.00 in /  0 mm
14:40 56.5 °F /  13.6 °C 51.4 °F /  10.8 °C 29.53 in /  999.9 hPa SW 3.9 mph /  6.3 km/h 6.9 mph /  11.1 km/h 83 % 0.00 in /  0 mm
14:45 56.4 °F /  13.6 °C 51.6 °F /  10.9 °C 29.52 in /  999.5 hPa SSW 3.5 mph /  5.6 km/h 5.8 mph /  9.3 km/h 84 % 0.00 in /  0 mm
14:50 56.3 °F /  13.5 °C 51.5 °F /  10.8 °C 29.52 in /  999.5 hPa SSW 3.8 mph /  6.1 km/h 6.9 mph /  11.1 km/h 84 % 0.00 in /  0 mm
14:55 56.3 °F /  13.5 °C 51.5 °F /  10.8 °C 29.52 in /  999.5 hPa WSW 3.4 mph /  5.5 km/h 9.2 mph /  14.8 km/h 84 % 0.00 in /  0 mm
15:00 56.3 °F /  13.5 °C 51.8 °F /  11 °C 29.51 in /  999.2 hPa SW 4.0 mph /  6.4 km/h 9.0 mph /  14.5 km/h 85 % 0.00 in /  0 mm
15:06 56.4 °F /  13.6 °C 51.9 °F /  11.1 °C 29.51 in /  999.2 hPa SW 5.0 mph /  8 km/h 9.0 mph /  14.5 km/h 85 % 0.00 in /  0 mm
15:11 56.6 °F /  13.7 °C 52.1 °F /  11.2 °C 29.51 in /  999.2 hPa South 1.9 mph /  3.1 km/h 5.0 mph /  8 km/h 85 % 0.00 in /  0 mm
15:16 56.7 °F /  13.7 °C 52.2 °F /  11.2 °C 29.51 in /  999.2 hPa SSW 3.0 mph /  4.8 km/h 10.0 mph /  16.1 km/h 85 % 0.00 in /  0 mm
15:21 56.8 °F /  13.8 °C 52.0 °F /  11.1 °C 29.51 in /  999.2 hPa WSW 3.9 mph /  6.3 km/h 8.1 mph /  13 km/h 84 % 0.00 in /  0 mm
15:26 56.9 °F /  13.8 °C 52.1 °F /  11.2 °C 29.51 in /  999.2 hPa SW 6.5 mph /  10.5 km/h 10.4 mph /  16.7 km/h 84 % 0.00 in /  0 mm
15:31 57.0 °F /  13.9 °C 52.2 °F /  11.2 °C 29.51 in /  999.2 hPa South 4.5 mph /  7.2 km/h 6.9 mph /  11.1 km/h 84 % 0.00 in /  0 mm
15:36 57.0 °F /  13.9 °C 52.2 °F /  11.2 °C 29.50 in /  998.9 hPa SW 2.4 mph /  3.9 km/h 5.8 mph /  9.3 km/h 84 % 0.00 in /  0 mm
15:41 57.1 °F /  13.9 °C 52.3 °F /  11.3 °C 29.50 in /  998.9 hPa SSW 4.6 mph /  7.4 km/h 5.8 mph /  9.3 km/h 84 % 0.00 in /  0 mm
15:46 57.1 °F /  13.9 °C 52.3 °F /  11.3 °C 29.51 in /  999.2 hPa SSW 1.7 mph /  2.7 km/h 5.8 mph /  9.3 km/h 84 % 0.00 in /  0 mm
15:51 57.2 °F /  14 °C 52.4 °F /  11.3 °C 29.51 in /  999.2 hPa SSW 4.5 mph /  7.2 km/h 8.0 mph /  12.9 km/h 84 % 0.00 in /  0 mm
15:56 57.2 °F /  14 °C 52.4 °F /  11.3 °C 29.51 in /  999.2 hPa South 4.5 mph /  7.2 km/h 9.2 mph /  14.8 km/h 84 % 0.00 in /  0 mm
16:01 57.2 °F /  14 °C 52.4 °F /  11.3 °C 29.51 in /  999.2 hPa SW 3.3 mph /  5.3 km/h 4.6 mph /  7.4 km/h 84 % 0.00 in /  0 mm
16:06 57.2 °F /  14 °C 52.4 °F /  11.3 °C 29.50 in /  998.9 hPa South 2.4 mph /  3.9 km/h 5.0 mph /  8 km/h 84 % 0.00 in /  0 mm
16:11 57.2 °F /  14 °C 52.4 °F /  11.3 °C 29.51 in /  999.2 hPa WSW 2.4 mph /  3.9 km/h 4.6 mph /  7.4 km/h 84 % 0.00 in /  0 mm
16:17 57.2 °F /  14 °C 52.4 °F /  11.3 °C 29.51 in /  999.2 hPa Calm   3.5 mph /  5.6 km/h 84 % 0.00 in /  0 mm
16:22 57.1 °F /  13.9 °C 52.3 °F /  11.3 °C 29.51 in /  999.2 hPa WSW 0.8 mph /  1.3 km/h 2.3 mph /  3.7 km/h 84 % 0.00 in /  0 mm
16:27 57.1 °F /  13.9 °C 52.3 °F /  11.3 °C 29.51 in /  999.2 hPa SSW 1.5 mph /  2.4 km/h 4.6 mph /  7.4 km/h 84 % 0.00 in /  0 mm
16:32 57.0 °F /  13.9 °C 52.2 °F /  11.2 °C 29.51 in /  999.2 hPa SSW 0.4 mph /  0.6 km/h 2.3 mph /  3.7 km/h 84 % 0.00 in /  0 mm
16:37 56.9 °F /  13.8 °C 52.1 °F /  11.2 °C 29.51 in /  999.2 hPa Calm     84 % 0.00 in /  0 mm
16:42 56.7 °F /  13.7 °C 50.9 °F /  10.5 °C 29.51 in /  999.2 hPa South 0.5 mph /  0.8 km/h 2.3 mph /  3.7 km/h 81 % 0.00 in /  0 mm
16:47 56.3 °F /  13.5 °C 50.2 °F /  10.1 °C 29.51 in /  999.2 hPa Calm     80 % 0.00 in /  0 mm
16:52 56.0 °F /  13.3 °C 49.9 °F /  9.9 °C 29.52 in /  999.5 hPa Calm     80 % 0.00 in /  0 mm
16:57 55.6 °F /  13.1 °C 49.5 °F /  9.7 °C 29.51 in /  999.2 hPa Calm     80 % 0.00 in /  0 mm
17:02 55.4 °F /  13 °C 49.7 °F /  9.8 °C 29.51 in /  999.2 hPa Calm   1.0 mph /  1.6 km/h 81 % 0.00 in /  0 mm
17:07 55.2 °F /  12.9 °C 49.8 °F /  9.9 °C 29.51 in /  999.2 hPa WSW 0.1 mph /  0.2 km/h 2.3 mph /  3.7 km/h 82 % 0.00 in /  0 mm
17:12 55.0 °F /  12.8 °C 49.9 °F /  9.9 °C 29.51 in /  999.2 hPa WSW 0.5 mph /  0.8 km/h 2.3 mph /  3.7 km/h 83 % 0.00 in /  0 mm
17:17 54.9 °F /  12.7 °C 50.2 °F /  10.1 °C 29.50 in /  998.9 hPa WSW 1.4 mph /  2.3 km/h 2.3 mph /  3.7 km/h 84 % 0.00 in /  0 mm
17:22 54.8 °F /  12.7 °C 50.4 °F /  10.2 °C 29.50 in /  998.9 hPa SSW 1.6 mph /  2.6 km/h 3.0 mph /  4.8 km/h 85 % 0.00 in /  0 mm
17:27 54.6 °F /  12.6 °C 50.2 °F /  10.1 °C 29.51 in /  999.2 hPa SW 0.1 mph /  0.2 km/h 2.3 mph /  3.7 km/h 85 % 0.00 in /  0 mm
17:32 54.4 °F /  12.4 °C 50.0 °F /  10 °C 29.51 in /  999.2 hPa SW 3.0 mph /  4.8 km/h 3.5 mph /  5.6 km/h 85 % 0.00 in /  0 mm
17:38 54.3 °F /  12.4 °C 50.2 °F /  10.1 °C 29.51 in /  999.2 hPa SW 0.4 mph /  0.6 km/h 2.3 mph /  3.7 km/h 86 % 0.00 in /  0 mm
17:43 54.1 °F /  12.3 °C 50.0 °F /  10 °C 29.51 in /  999.2 hPa SW 0.6 mph /  1 km/h 2.3 mph /  3.7 km/h 86 % 0.00 in /  0 mm
17:48 53.9 °F /  12.2 °C 49.8 °F /  9.9 °C 29.51 in /  999.2 hPa SW 0.5 mph /  0.8 km/h 2.3 mph /  3.7 km/h 86 % 0.00 in /  0 mm
17:53 53.7 °F /  12.1 °C 49.9 °F /  9.9 °C 29.51 in /  999.2 hPa Calm   1.0 mph /  1.6 km/h 87 % 0.00 in /  0 mm
17:58 53.5 °F /  11.9 °C 49.7 °F /  9.8 °C 29.51 in /  999.2 hPa SW 0.1 mph /  0.2 km/h 2.3 mph /  3.7 km/h 87 % 0.00 in /  0 mm
18:03 53.3 °F /  11.8 °C 49.5 °F /  9.7 °C 29.51 in /  999.2 hPa SW 1.0 mph /  1.6 km/h 3.5 mph /  5.6 km/h 87 % 0.00 in /  0 mm
18:08 53.1 °F /  11.7 °C 49.3 °F /  9.6 °C 29.50 in /  998.9 hPa Calm     87 % 0.00 in /  0 mm
18:13 53.0 °F /  11.7 °C 49.2 °F /  9.6 °C 29.50 in /  998.9 hPa SW 0.9 mph /  1.4 km/h 2.3 mph /  3.7 km/h 87 % 0.00 in /  0 mm
18:18 52.9 °F /  11.6 °C 49.4 °F /  9.7 °C 29.50 in /  998.9 hPa SSW 1.2 mph /  1.9 km/h 3.5 mph /  5.6 km/h 88 % 0.00 in /  0 mm
18:23 52.8 °F /  11.6 °C 49.6 °F /  9.8 °C 29.49 in /  998.5 hPa SSW 1.3 mph /  2.1 km/h 3.5 mph /  5.6 km/h 89 % 0.00 in /  0 mm
18:28 52.8 °F /  11.6 °C 49.6 °F /  9.8 °C 29.49 in /  998.5 hPa SSW 2.7 mph /  4.3 km/h 4.0 mph /  6.4 km/h 89 % 0.00 in /  0 mm
18:33 52.7 °F /  11.5 °C 49.8 °F /  9.9 °C 29.49 in /  998.5 hPa SSW 3.4 mph /  5.5 km/h 5.8 mph /  9.3 km/h 90 % 0.00 in /  0 mm
18:38 52.8 °F /  11.6 °C 50.2 °F /  10.1 °C 29.49 in /  998.5 hPa SSW 2.0 mph /  3.2 km/h 3.5 mph /  5.6 km/h 91 % 0.00 in /  0 mm
18:43 52.8 °F /  11.6 °C 50.2 °F /  10.1 °C 29.50 in /  998.9 hPa WSW 2.9 mph /  4.7 km/h 4.6 mph /  7.4 km/h 91 % 0.00 in /  0 mm
18:48 53.0 °F /  11.7 °C 50.4 °F /  10.2 °C 29.49 in /  998.5 hPa SW 1.8 mph /  2.9 km/h 3.5 mph /  5.6 km/h 91 % 0.00 in /  0 mm
18:53 53.1 °F /  11.7 °C 50.5 °F /  10.3 °C 29.50 in /  998.9 hPa SSW 3.0 mph /  4.8 km/h 4.6 mph /  7.4 km/h 91 % 0.00 in /  0 mm
18:59 53.2 °F /  11.8 °C 50.6 °F /  10.3 °C 29.50 in /  998.9 hPa SSW 0.6 mph /  1 km/h 5.8 mph /  9.3 km/h 91 % 0.00 in /  0 mm
19:04 53.3 °F /  11.8 °C 50.7 °F /  10.4 °C 29.50 in /  998.9 hPa WSW 3.0 mph /  4.8 km/h 3.5 mph /  5.6 km/h 91 % 0.00 in /  0 mm
19:09 53.3 °F /  11.8 °C 50.7 °F /  10.4 °C 29.50 in /  998.9 hPa SW 1.6 mph /  2.6 km/h 4.6 mph /  7.4 km/h 91 % 0.00 in /  0 mm
19:14 53.4 °F /  11.9 °C 50.8 °F /  10.4 °C 29.50 in /  998.9 hPa SSW 1.4 mph /  2.3 km/h 3.5 mph /  5.6 km/h 91 % 0.00 in /  0 mm
19:19 53.4 °F /  11.9 °C 50.8 °F /  10.4 °C 29.50 in /  998.9 hPa SW 1.4 mph /  2.3 km/h 3.5 mph /  5.6 km/h 91 % 0.00 in /  0 mm
19:24 53.4 °F /  11.9 °C 50.8 °F /  10.4 °C 29.49 in /  998.5 hPa SSW 0.8 mph /  1.3 km/h 2.0 mph /  3.2 km/h 91 % 0.00 in /  0 mm
19:29 53.4 °F /  11.9 °C 50.5 °F /  10.3 °C 29.49 in /  998.5 hPa SW 1.0 mph /  1.6 km/h 2.3 mph /  3.7 km/h 90 % 0.00 in /  0 mm
19:34 53.4 °F /  11.9 °C 50.5 °F /  10.3 °C 29.50 in /  998.9 hPa SW 0.7 mph /  1.1 km/h 3.5 mph /  5.6 km/h 90 % 0.00 in /  0 mm
19:39 53.3 °F /  11.8 °C 50.4 °F /  10.2 °C 29.50 in /  998.9 hPa SW 1.7 mph /  2.7 km/h 3.5 mph /  5.6 km/h 90 % 0.00 in /  0 mm
19:44 53.2 °F /  11.8 °C 50.3 °F /  10.2 °C 29.49 in /  998.5 hPa Calm     90 % 0.00 in /  0 mm
19:49 53.2 °F /  11.8 °C 50.3 °F /  10.2 °C 29.49 in /  998.5 hPa Calm   1.2 mph /  1.9 km/h 90 % 0.00 in /  0 mm
19:54 53.1 °F /  11.7 °C 50.2 °F /  10.1 °C 29.49 in /  998.5 hPa SW 0.2 mph /  0.3 km/h 1.0 mph /  1.6 km/h 90 % 0.00 in /  0 mm
19:59 53.0 °F /  11.7 °C 50.1 °F /  10.1 °C 29.49 in /  998.5 hPa SW 0.9 mph /  1.4 km/h 2.3 mph /  3.7 km/h 90 % 0.00 in /  0 mm
20:04 52.8 °F /  11.6 °C 49.9 °F /  9.9 °C 29.49 in /  998.5 hPa Calm     90 % 0.00 in /  0 mm
20:09 52.7 °F /  11.5 °C 49.8 °F /  9.9 °C 29.48 in /  998.2 hPa Calm     90 % 0.00 in /  0 mm
20:14 52.6 °F /  11.4 °C 49.8 °F /  9.9 °C 29.48 in /  998.2 hPa Calm     90 % 0.00 in /  0 mm
20:19 52.5 °F /  11.4 °C 49.7 °F /  9.8 °C 29.48 in /  998.2 hPa Calm     90 % 0.00 in /  0 mm
20:24 52.3 °F /  11.3 °C 49.5 °F /  9.7 °C 29.48 in /  998.2 hPa Calm     90 % 0.00 in /  0 mm
20:29 52.1 °F /  11.2 °C 49.3 °F /  9.6 °C 29.47 in /  997.9 hPa Calm   1.2 mph /  1.9 km/h 90 % 0.00 in /  0 mm
20:34 52.0 °F /  11.1 °C 49.2 °F /  9.6 °C 29.47 in /  997.9 hPa Calm     90 % 0.00 in /  0 mm
20:40 51.9 °F /  11.1 °C 49.1 °F /  9.5 °C 29.47 in /  997.9 hPa Calm     90 % 0.00 in /  0 mm
20:45 51.7 °F /  10.9 °C 48.9 °F /  9.4 °C 29.47 in /  997.9 hPa Calm     90 % 0.00 in /  0 mm
20:50 51.6 °F /  10.9 °C 48.8 °F /  9.3 °C 29.47 in /  997.9 hPa Calm   3.5 mph /  5.6 km/h 90 % 0.00 in /  0 mm
20:55 51.4 °F /  10.8 °C 48.6 °F /  9.2 °C 29.47 in /  997.9 hPa WSW 0.2 mph /  0.3 km/h 3.5 mph /  5.6 km/h 90 % 0.00 in /  0 mm
21:00 51.3 °F /  10.7 °C 48.5 °F /  9.2 °C 29.47 in /  997.9 hPa WSW 0.5 mph /  0.8 km/h 2.3 mph /  3.7 km/h 90 % 0.00 in /  0 mm
21:05 51.2 °F /  10.7 °C 48.7 °F /  9.3 °C 29.47 in /  997.9 hPa SSE 1.1 mph /  1.8 km/h 3.5 mph /  5.6 km/h 91 % 0.00 in /  0 mm
21:10 51.2 °F /  10.7 °C 48.7 °F /  9.3 °C 29.47 in /  997.9 hPa SSW 1.4 mph /  2.3 km/h 3.5 mph /  5.6 km/h 91 % 0.00 in /  0 mm
21:15 51.2 °F /  10.7 °C 49.0 °F /  9.4 °C 29.47 in /  997.9 hPa SSW 3.4 mph /  5.5 km/h 5.0 mph /  8 km/h 92 % 0.00 in /  0 mm
21:20 51.4 °F /  10.8 °C 49.4 °F /  9.7 °C 29.47 in /  997.9 hPa SSW 2.7 mph /  4.3 km/h 4.0 mph /  6.4 km/h 93 % 0.00 in /  0 mm
21:25 51.6 °F /  10.9 °C 49.6 °F /  9.8 °C 29.47 in /  997.9 hPa WSW 2.9 mph /  4.7 km/h 3.5 mph /  5.6 km/h 93 % 0.00 in /  0 mm
21:30 51.8 °F /  11 °C 50.1 °F /  10.1 °C 29.46 in /  997.5 hPa WSW 1.7 mph /  2.7 km/h 3.5 mph /  5.6 km/h 94 % 0.00 in /  0 mm
21:35 52.1 °F /  11.2 °C 50.4 °F /  10.2 °C 29.46 in /  997.5 hPa WSW 1.8 mph /  2.9 km/h 3.5 mph /  5.6 km/h 94 % 0.00 in /  0 mm
21:40 52.3 °F /  11.3 °C 50.6 °F /  10.3 °C 29.46 in /  997.5 hPa WSW 0.4 mph /  0.6 km/h 3.5 mph /  5.6 km/h 94 % 0.00 in /  0 mm
21:45 52.5 °F /  11.4 °C 50.8 °F /  10.4 °C 29.45 in /  997.2 hPa WSW 0.2 mph /  0.3 km/h 3.5 mph /  5.6 km/h 94 % 0.00 in /  0 mm
21:50 52.8 °F /  11.6 °C 51.1 °F /  10.6 °C 29.45 in /  997.2 hPa Calm     94 % 0.00 in /  0 mm
21:55 53.0 °F /  11.7 °C 51.3 °F /  10.7 °C 29.46 in /  997.5 hPa WSW 0.3 mph /  0.5 km/h 1.2 mph /  1.9 km/h 94 % 0.00 in /  0 mm
22:00 53.1 °F /  11.7 °C 51.4 °F /  10.8 °C 29.46 in /  997.5 hPa Calm   1.0 mph /  1.6 km/h 94 % 0.00 in /  0 mm
22:06 53.2 °F /  11.8 °C 51.5 °F /  10.8 °C 29.46 in /  997.5 hPa Calm   3.5 mph /  5.6 km/h 94 % 0.00 in /  0 mm
22:11 53.2 °F /  11.8 °C 51.2 °F /  10.7 °C 29.46 in /  997.5 hPa Calm   2.0 mph /  3.2 km/h 93 % 0.00 in /  0 mm
22:16 53.3 °F /  11.8 °C 51.3 °F /  10.7 °C 29.45 in /  997.2 hPa West 1.0 mph /  1.6 km/h 2.0 mph /  3.2 km/h 93 % 0.00 in /  0 mm
22:21 53.3 °F /  11.8 °C 51.3 °F /  10.7 °C 29.45 in /  997.2 hPa Calm     93 % 0.00 in /  0 mm
22:26 53.3 °F /  11.8 °C 51.3 °F /  10.7 °C 29.44 in /  996.8 hPa Calm     93 % 0.00 in /  0 mm
22:31 53.2 °F /  11.8 °C 51.3 °F /  10.7 °C 29.44 in /  996.8 hPa Calm     93 % 0.00 in /  0 mm
22:36 53.2 °F /  11.8 °C 50.9 °F /  10.5 °C 29.44 in /  996.8 hPa West 1.0 mph /  1.6 km/h 2.0 mph /  3.2 km/h 92 % 0.00 in /  0 mm
22:41 53.0 °F /  11.7 °C 50.7 °F /  10.4 °C 29.44 in /  996.8 hPa WSW 2.0 mph /  3.2 km/h 6.0 mph /  9.7 km/h 92 % 0.00 in /  0 mm
22:46 52.9 °F /  11.6 °C 50.6 °F /  10.3 °C 29.42 in /  996.2 hPa SSW 2.1 mph /  3.4 km/h 3.5 mph /  5.6 km/h 92 % 0.00 in /  0 mm
22:51 52.9 °F /  11.6 °C 50.6 °F /  10.3 °C 29.43 in /  996.5 hPa SSW 3.0 mph /  4.8 km/h 6.0 mph /  9.7 km/h 92 % 0.00 in /  0 mm
22:56 53.0 °F /  11.7 °C 51.0 °F /  10.6 °C 29.43 in /  996.5 hPa SSW 1.0 mph /  1.6 km/h 6.0 mph /  9.7 km/h 93 % 0.00 in /  0 mm
23:01 53.1 °F /  11.7 °C 51.1 °F /  10.6 °C 29.42 in /  996.2 hPa South 0.7 mph /  1.1 km/h 2.3 mph /  3.7 km/h 93 % 0.00 in /  0 mm
23:06 53.2 °F /  11.8 °C 51.5 °F /  10.8 °C 29.42 in /  996.2 hPa SSW 3.0 mph /  4.8 km/h 6.0 mph /  9.7 km/h 94 % 0.00 in /  0 mm
23:11 53.3 °F /  11.8 °C 51.6 °F /  10.9 °C 29.42 in /  996.2 hPa SW 3.0 mph /  4.8 km/h 7.0 mph /  11.3 km/h 94 % 0.00 in /  0 mm
23:16 53.4 °F /  11.9 °C 51.7 °F /  10.9 °C 29.42 in /  996.2 hPa SW 5.0 mph /  8 km/h 8.0 mph /  12.9 km/h 94 % 0.00 in /  0 mm
23:21 53.5 °F /  11.9 °C 51.8 °F /  11 °C 29.41 in /  995.8 hPa SSW 2.0 mph /  3.2 km/h 7.0 mph /  11.3 km/h 94 % 0.00 in /  0 mm
23:26 53.6 °F /  12 °C 52.3 °F /  11.3 °C 29.41 in /  995.8 hPa SSW 3.0 mph /  4.8 km/h 7.0 mph /  11.3 km/h 95 % 0.00 in /  0 mm
23:31 53.8 °F /  12.1 °C 52.4 °F /  11.3 °C 29.41 in /  995.8 hPa SW 2.0 mph /  3.2 km/h 5.8 mph /  9.3 km/h 95 % 0.00 in /  0 mm
23:36 54.0 °F /  12.2 °C 52.6 °F /  11.4 °C 29.41 in /  995.8 hPa SW 3.0 mph /  4.8 km/h 7.0 mph /  11.3 km/h 95 % 0.00 in /  0 mm
23:41 54.1 °F /  12.3 °C 52.7 °F /  11.5 °C 29.41 in /  995.8 hPa West 5.0 mph /  8 km/h 7.0 mph /  11.3 km/h 95 % 0.00 in /  0 mm
23:46 54.2 °F /  12.3 °C 52.8 °F /  11.6 °C 29.41 in /  995.8 hPa West 5.0 mph /  8 km/h 9.0 mph /  14.5 km/h 95 % 0.00 in /  0 mm
23:51 54.3 °F /  12.4 °C 52.9 °F /  11.6 °C 29.40 in /  995.5 hPa SW 3.0 mph /  4.8 km/h 7.0 mph /  11.3 km/h 95 % 0.00 in /  0 mm
23:56 54.3 °F /  12.4 °C 52.9 °F /  11.6 °C 29.40 in /  995.5 hPa SW 3.0 mph /  4.8 km/h 7.0 mph /  11.3 km/h 95 % 0.00 in /  0 mm
Crab Meadow Weather
Compliments of Weather Underground - 3 mb

Script developed by  Jim McMurry - jmcmurry@mwt.net Adapted for the template by  Wim van der Kuil - Leuven-Template.eu

Weather Terms: Flood Stage - The level or stage at which a stream overflows its banks or the stage at which the overflow of a stream begins to cause damage.